createdAt,value
2023-04-20T00:00:11.179Z,101588.09
2023-04-20T00:02:42.160Z,101595.06
2023-04-20T00:05:10.642Z,101590.97
2023-04-20T00:07:38.655Z,101599.59
2023-04-20T00:10:07.062Z,101604.94
2023-04-20T00:12:33.967Z,101597.53
2023-04-20T00:15:01.223Z,101600.00
2023-04-20T00:17:28.149Z,101596.31
2023-04-20T00:19:55.535Z,101593.22
2023-04-20T00:22:22.377Z,101593.84
2023-04-20T00:24:49.535Z,101599.19
2023-04-20T00:27:16.537Z,101591.16
2023-04-20T00:29:43.576Z,101588.50
2023-04-20T00:32:10.927Z,101593.41
2023-04-20T00:34:37.865Z,101588.50
2023-04-20T00:37:04.902Z,101592.63
2023-04-20T00:39:32.000Z,101589.94
2023-04-20T00:42:07.208Z,101600.22
2023-04-20T00:44:34.906Z,101594.25
2023-04-20T00:47:02.219Z,101596.94
2023-04-20T00:49:30.949Z,101584.81
2023-04-20T00:51:59.670Z,101572.47
2023-04-20T00:54:28.789Z,101588.31
2023-04-20T00:56:57.988Z,101575.16
2023-04-20T00:59:25.647Z,101582.13
2023-04-20T01:01:53.226Z,101581.94
2023-04-20T01:04:20.747Z,101579.03
2023-04-20T01:06:47.708Z,101577.41
2023-04-20T01:09:15.056Z,101572.50
2023-04-20T01:11:42.130Z,101576.00
2023-04-20T01:14:09.111Z,101575.19
2023-04-20T01:16:36.763Z,101588.56
2023-04-20T01:19:04.801Z,101576.03
2023-04-20T01:21:33.359Z,101576.25
2023-04-20T01:24:00.416Z,101576.03
2023-04-20T01:26:27.369Z,101587.53
2023-04-20T01:28:54.470Z,101581.78
2023-04-20T01:31:21.850Z,101580.13
2023-04-20T01:33:50.922Z,101585.28
2023-04-20T01:36:21.319Z,101571.09
2023-04-20T01:38:49.362Z,101575.41
2023-04-20T01:41:16.504Z,101561.84
2023-04-20T01:43:43.409Z,101554.47
2023-04-20T01:46:12.861Z,101563.50
2023-04-20T01:48:40.527Z,101564.75
2023-04-20T01:51:09.623Z,101556.28
2023-04-20T01:53:36.537Z,101559.56
2023-04-20T01:56:03.614Z,101564.72
2023-04-20T01:58:31.448Z,101566.34
2023-04-20T02:00:58.549Z,101574.97
2023-04-20T02:03:27.839Z,101570.28
2023-04-20T02:05:55.272Z,101573.78
2023-04-20T02:08:22.626Z,101579.94
2023-04-20T02:10:49.651Z,101561.03
2023-04-20T02:13:17.066Z,101567.00
2023-04-20T02:15:45.772Z,101563.91
2023-04-20T02:18:12.942Z,101567.81
2023-04-20T02:20:40.143Z,101566.16
2023-04-20T02:23:07.466Z,101562.47
2023-04-20T02:25:36.298Z,101576.84
2023-04-20T02:28:04.938Z,101567.81
2023-04-20T02:30:31.869Z,101565.97
2023-04-20T02:33:00.008Z,101580.16
2023-04-20T02:35:27.058Z,101569.25
2023-04-20T02:37:54.045Z,101570.50
2023-04-20T02:40:21.072Z,101571.94
2023-04-20T02:42:48.112Z,101578.09
2023-04-20T02:45:15.190Z,101563.91
2023-04-20T02:47:45.021Z,101569.66
2023-04-20T02:50:13.356Z,101576.22
2023-04-20T02:53:00.353Z,101569.44
2023-04-20T02:55:28.502Z,101571.31
2023-04-20T02:57:59.618Z,101582.38
2023-04-20T03:00:40.650Z,101586.06
2023-04-20T03:03:10.163Z,101584.63
2023-04-20T03:05:37.231Z,101574.78
2023-04-20T03:08:06.933Z,101569.81
2023-04-20T03:10:33.990Z,101578.03
2023-04-20T03:13:12.224Z,101579.25
2023-04-20T03:16:06.457Z,101569.41
2023-04-20T03:18:41.780Z,101566.75
2023-04-20T03:21:08.902Z,101572.91
2023-04-20T03:23:35.880Z,101580.72
2023-04-20T03:26:04.324Z,101584.19
2023-04-20T03:28:39.819Z,101576.97
2023-04-20T03:31:06.701Z,101581.69
2023-04-20T03:33:34.199Z,101579.03
2023-04-20T03:36:01.939Z,101587.66
2023-04-20T03:38:28.866Z,101589.09
2023-04-20T03:40:55.774Z,101589.09
2023-04-20T03:43:22.745Z,101593.00
2023-04-20T03:45:50.214Z,101574.09
2023-04-20T03:48:18.545Z,101580.25
2023-04-20T03:50:45.910Z,101583.97
2023-04-20T03:53:13.035Z,101588.50
2023-04-20T03:55:40.755Z,101589.94
2023-04-20T03:58:11.821Z,101588.69
2023-04-20T04:00:51.493Z,101585.00
2023-04-20T04:03:18.888Z,101587.25
2023-04-20T04:05:47.369Z,101595.25
2023-04-20T04:08:14.306Z,101591.78
2023-04-20T04:10:41.188Z,101591.56
2023-04-20T04:13:08.270Z,101586.84
2023-04-20T04:15:35.133Z,101588.47
2023-04-20T04:18:07.952Z,101602.66
2023-04-20T04:20:36.204Z,101596.31
2023-04-20T04:23:03.344Z,101603.91
2023-04-20T04:25:40.409Z,101596.09
2023-04-20T04:28:08.969Z,101594.44
2023-04-20T04:30:40.535Z,101598.56
2023-04-20T04:33:10.136Z,101603.69
2023-04-20T04:35:41.450Z,101607.38
2023-04-20T04:38:09.613Z,101611.69
2023-04-20T04:40:38.077Z,101604.91
2023-04-20T04:43:07.626Z,101611.28
2023-04-20T04:45:40.932Z,101613.13
2023-04-20T04:48:12.145Z,101631.00
2023-04-20T04:50:40.112Z,101620.75
2023-04-20T04:53:07.750Z,101625.88
2023-04-20T04:55:35.033Z,101615.19
2023-04-20T04:58:02.848Z,101623.63
2023-04-20T05:00:31.395Z,101626.31
2023-04-20T05:02:58.744Z,101625.06
2023-04-20T05:05:30.377Z,101624.25
2023-04-20T05:07:57.521Z,101620.31
2023-04-20T05:10:24.666Z,101612.31
2023-04-20T05:12:52.373Z,101615.38
2023-04-20T05:15:19.679Z,101632.03
2023-04-20T05:17:49.480Z,101633.06
2023-04-20T05:20:16.785Z,101636.56
2023-04-20T05:22:43.794Z,101619.91
2023-04-20T05:25:13.797Z,101622.78
2023-04-20T05:27:41.148Z,101625.03
2023-04-20T05:30:19.649Z,101629.75
2023-04-20T05:32:51.507Z,101627.69
2023-04-20T05:35:19.841Z,101631.38
2023-04-20T05:37:47.882Z,101640.22
2023-04-20T05:40:15.741Z,101640.63
2023-04-20T05:42:42.796Z,101654.81
2023-04-20T05:45:10.876Z,101659.53
2023-04-20T05:47:37.939Z,101663.66
2023-04-20T05:50:06.476Z,101657.47
2023-04-20T05:52:33.412Z,101651.72
2023-04-20T05:55:00.491Z,101652.50
2023-04-20T05:57:27.556Z,101659.69
2023-04-20T05:59:56.007Z,101653.50
2023-04-20T06:02:23.294Z,101633.72
2023-04-20T06:04:50.442Z,101639.22
2023-04-20T06:07:17.675Z,101654.81
2023-04-20T06:09:44.655Z,101656.50
2023-04-20T06:12:12.018Z,101654.44
2023-04-20T06:14:39.232Z,101655.84
2023-04-20T06:17:06.216Z,101659.13
2023-04-20T06:19:33.345Z,101667.13
2023-04-20T06:22:01.282Z,101671.63
2023-04-20T06:24:28.597Z,101672.63
2023-04-20T06:26:55.525Z,101671.78
2023-04-20T06:29:22.447Z,101676.31
2023-04-20T06:31:49.524Z,101677.50
2023-04-20T06:34:16.581Z,101683.50
2023-04-20T06:36:44.017Z,101674.03
2023-04-20T06:39:13.879Z,101669.09
2023-04-20T06:41:41.007Z,101670.28
2023-04-20T06:44:08.045Z,101677.69
2023-04-20T06:46:35.359Z,101678.84
2023-04-20T06:49:03.077Z,101668.69
2023-04-20T06:51:32.158Z,101682.19
2023-04-20T06:53:59.241Z,101673.28
2023-04-20T06:56:26.187Z,101670.94
2023-04-20T06:58:54.105Z,101672.31
2023-04-20T07:01:21.839Z,101654.53
2023-04-20T07:03:49.072Z,101668.38
2023-04-20T07:06:17.000Z,101653.47
2023-04-20T07:08:44.028Z,101652.88
2023-04-20T07:11:11.262Z,101670.97
2023-04-20T07:13:45.097Z,101673.66
2023-04-20T07:16:12.101Z,101672.16
2023-04-20T07:18:39.117Z,101682.03
2023-04-20T07:21:06.232Z,101672.66
2023-04-20T07:23:33.275Z,101689.31
2023-04-20T07:26:00.385Z,101680.84
2023-04-20T07:28:27.383Z,101678.56
2023-04-20T07:30:54.346Z,101670.72
2023-04-20T07:33:21.344Z,101681.03
2023-04-20T07:35:48.443Z,101684.75
2023-04-20T07:38:16.178Z,101682.31
2023-04-20T07:40:43.052Z,101682.78
2023-04-20T07:43:10.076Z,101683.22
2023-04-20T07:45:41.179Z,101684.03
2023-04-20T07:48:12.632Z,101684.63
2023-04-20T07:50:39.984Z,101704.88
2023-04-20T07:53:07.190Z,101696.44
2023-04-20T07:55:34.308Z,101697.50
2023-04-20T07:58:01.202Z,101692.13
2023-04-20T08:00:28.394Z,101707.50
2023-04-20T08:02:55.704Z,101710.44
2023-04-20T08:05:24.413Z,101706.50
2023-04-20T08:07:51.556Z,101706.06
2023-04-20T08:10:18.903Z,101708.31
2023-04-20T08:12:46.987Z,101692.72
2023-04-20T08:15:14.357Z,101694.09
2023-04-20T08:17:41.814Z,101703.78
2023-04-20T08:20:09.168Z,101704.34
2023-04-20T08:22:36.385Z,101697.69
2023-04-20T08:25:03.823Z,101693.78
2023-04-20T08:27:31.079Z,101704.38
2023-04-20T08:29:58.288Z,101701.63
2023-04-20T08:32:27.077Z,101704.16
2023-04-20T08:34:55.394Z,101691.97
2023-04-20T08:37:22.438Z,101709.47
2023-04-20T08:39:49.511Z,101703.41
2023-04-20T08:42:18.692Z,101712.56
2023-04-20T08:44:45.882Z,101708.63
2023-04-20T08:47:14.332Z,101712.50
2023-04-20T08:49:41.946Z,101722.75
2023-04-20T08:52:11.168Z,101726.84
2023-04-20T08:54:49.280Z,101728.78
2023-04-20T08:57:23.312Z,101730.81
2023-04-20T08:59:52.033Z,101720.06
2023-04-20T09:02:21.152Z,101729.94
2023-04-20T09:04:50.593Z,101710.53
2023-04-20T09:07:21.762Z,101717.50
2023-04-20T09:10:00.984Z,101719.38
2023-04-20T09:12:29.179Z,101716.09
2023-04-20T09:14:56.983Z,101723.13
2023-04-20T09:17:37.964Z,101718.66
2023-04-20T09:20:07.422Z,101711.84
2023-04-20T09:22:37.710Z,101706.34
2023-04-20T09:25:17.062Z,101702.84
2023-04-20T09:27:55.308Z,101702.03
2023-04-20T09:30:22.823Z,101706.13
2023-04-20T09:33:01.357Z,101711.41
2023-04-20T09:35:28.457Z,101706.97
2023-04-20T09:37:55.734Z,101703.00
2023-04-20T09:40:27.799Z,101706.53
2023-04-20T09:42:57.726Z,101706.88
2023-04-20T09:45:26.076Z,101703.13
2023-04-20T09:47:54.051Z,101695.91
2023-04-20T09:50:29.199Z,101699.50
2023-04-20T09:53:04.750Z,101704.59
2023-04-20T09:55:34.899Z,101702.66
2023-04-20T09:58:05.593Z,101693.31
2023-04-20T10:00:32.765Z,101691.88
2023-04-20T10:02:59.868Z,101696.03
2023-04-20T10:05:39.478Z,101691.16
2023-04-20T10:08:07.033Z,101678.25
2023-04-20T10:11:03.542Z,101689.28
2023-04-20T10:13:33.967Z,101681.41
2023-04-20T10:16:01.374Z,101684.88
2023-04-20T10:18:28.351Z,101667.16
2023-04-20T10:21:11.562Z,101671.34
2023-04-20T10:23:52.576Z,101668.38
2023-04-20T10:26:19.959Z,101658.97
2023-04-20T10:28:47.195Z,101660.94
2023-04-20T10:31:15.570Z,101653.69
2023-04-20T10:33:56.088Z,101646.16
2023-04-20T10:36:36.711Z,101636.91
2023-04-20T10:39:22.083Z,101637.44
2023-04-20T10:42:01.177Z,101646.38
2023-04-20T10:44:28.300Z,101634.97
2023-04-20T10:46:56.542Z,101625.56
2023-04-20T10:49:29.394Z,101618.84
2023-04-20T10:51:56.683Z,101614.28
2023-04-20T10:54:23.717Z,101607.59
2023-04-20T10:56:52.506Z,101605.09
2023-04-20T10:59:23.430Z,101616.03
2023-04-20T11:01:52.152Z,101604.97
2023-04-20T11:04:29.877Z,101598.69
2023-04-20T11:07:07.237Z,101582.47
2023-04-20T11:09:36.392Z,101593.44
2023-04-20T11:12:11.913Z,101591.34
2023-04-20T11:14:55.133Z,101586.75
2023-04-20T11:17:33.646Z,101589.22
2023-04-20T11:20:12.684Z,101599.59
2023-04-20T11:22:41.528Z,101604.88
2023-04-20T11:25:11.531Z,101601.03
2023-04-20T11:27:39.644Z,101609.34
2023-04-20T11:30:09.199Z,101604.34
2023-04-20T11:32:36.678Z,101608.72
2023-04-20T11:35:10.831Z,101614.34
2023-04-20T11:37:51.896Z,101603.47
2023-04-20T11:40:19.356Z,101608.63
2023-04-20T11:42:46.477Z,101612.53
2023-04-20T11:45:13.432Z,101610.13
2023-04-20T11:47:41.182Z,101602.78
2023-04-20T11:50:10.506Z,101591.53
2023-04-20T11:52:37.581Z,101603.25
2023-04-20T11:55:05.324Z,101599.91
2023-04-20T11:57:32.765Z,101600.84
2023-04-20T11:59:59.676Z,101597.44
2023-04-20T12:02:26.958Z,101602.59
2023-04-20T12:04:54.061Z,101604.63
2023-04-20T12:07:22.717Z,101589.84
2023-04-20T12:09:50.055Z,101579.16
2023-04-20T12:12:17.023Z,101582.47
2023-04-20T12:14:44.116Z,101577.47
2023-04-20T12:17:11.176Z,101583.53
2023-04-20T12:19:38.177Z,101588.78
2023-04-20T12:22:05.159Z,101594.22
2023-04-20T12:24:32.014Z,101583.25
2023-04-20T12:26:59.571Z,101576.69
2023-04-20T12:29:26.507Z,101575.03
2023-04-20T12:31:53.735Z,101575.59
2023-04-20T12:34:21.240Z,101557.97
2023-04-20T12:36:48.790Z,101556.25
2023-04-20T12:39:16.053Z,101549.81
2023-04-20T12:41:42.989Z,101532.47
2023-04-20T12:44:11.602Z,101540.53
2023-04-20T12:46:38.628Z,101530.16
2023-04-20T12:49:06.148Z,101531.63
2023-04-20T12:51:33.384Z,101529.06
2023-04-20T12:54:00.786Z,101524.16
2023-04-20T12:56:27.867Z,101525.72
2023-04-20T12:58:55.108Z,101506.69
2023-04-20T13:01:22.226Z,101508.22
2023-04-20T13:03:52.438Z,101493.41
2023-04-20T13:06:19.572Z,101495.47
2023-04-20T13:08:46.687Z,101500.13
2023-04-20T13:11:16.127Z,101501.69
2023-04-20T13:13:43.083Z,101497.84
2023-04-20T13:16:10.139Z,101495.88
2023-04-20T13:18:37.576Z,101501.50
2023-04-20T13:21:04.567Z,101494.56
2023-04-20T13:23:31.685Z,101495.78
2023-04-20T13:26:01.516Z,101480.84
2023-04-20T13:28:28.866Z,101487.97
2023-04-20T13:30:57.357Z,101486.81
2023-04-20T13:33:24.770Z,101478.56
2023-04-20T13:35:52.073Z,101483.28
2023-04-20T13:38:19.215Z,101486.06
2023-04-20T13:40:47.096Z,101483.78
2023-04-20T13:43:14.379Z,101492.06
2023-04-20T13:45:41.413Z,101490.13
2023-04-20T13:48:08.601Z,101487.06
2023-04-20T13:50:35.681Z,101490.03
2023-04-20T13:53:03.285Z,101487.56
2023-04-20T13:55:31.406Z,101489.66
2023-04-20T13:57:58.511Z,101475.88
2023-04-20T14:00:26.096Z,101479.31
2023-04-20T14:02:53.328Z,101482.06
2023-04-20T14:05:20.653Z,101464.50
2023-04-20T14:07:48.011Z,101470.53
2023-04-20T14:10:15.486Z,101458.50
2023-04-20T14:12:42.373Z,101451.19
2023-04-20T14:15:10.246Z,101452.19
2023-04-20T14:17:37.357Z,101455.09
2023-04-20T14:20:05.556Z,101443.91
2023-04-20T14:22:35.877Z,101447.22
2023-04-20T14:25:05.057Z,101449.13
2023-04-20T14:27:32.704Z,101450.91
2023-04-20T14:29:59.800Z,101445.66
2023-04-20T14:32:27.265Z,101455.63
2023-04-20T14:34:54.216Z,101441.16
2023-04-20T14:37:21.326Z,101446.34
2023-04-20T14:39:48.329Z,101419.91
2023-04-20T14:42:15.740Z,101430.56
2023-04-20T14:44:42.599Z,101443.13
2023-04-20T14:47:09.623Z,101431.22
2023-04-20T14:49:36.596Z,101427.81
2023-04-20T14:52:03.806Z,101435.91
2023-04-20T14:54:30.926Z,101437.00
2023-04-20T14:56:58.379Z,101435.84
2023-04-20T14:59:26.957Z,101423.41
2023-04-20T15:02:02.211Z,101425.09
2023-04-20T15:04:30.413Z,101421.41
2023-04-20T15:06:57.722Z,101428.38
2023-04-20T15:09:25.336Z,101436.13
2023-04-20T15:11:52.452Z,101434.66
2023-04-20T15:14:20.311Z,101441.09
2023-04-20T15:16:47.567Z,101437.66
2023-04-20T15:19:14.581Z,101435.66
2023-04-20T15:21:42.661Z,101436.06
2023-04-20T15:24:10.551Z,101439.84
2023-04-20T15:26:37.623Z,101438.66
2023-04-20T15:29:04.628Z,101438.63
2023-04-20T15:31:31.682Z,101432.00
2023-04-20T15:34:00.729Z,101429.34
2023-04-20T15:36:27.777Z,101432.00
2023-04-20T15:38:57.557Z,101425.34
2023-04-20T15:41:25.288Z,101430.22
2023-04-20T15:43:52.258Z,101428.97
2023-04-20T15:46:23.697Z,101437.00
2023-04-20T15:48:51.073Z,101431.19
2023-04-20T15:51:20.078Z,101436.56
2023-04-20T15:53:50.424Z,101434.84
2023-04-20T15:56:22.290Z,101432.34
2023-04-20T15:58:50.492Z,101427.41
2023-04-20T16:01:21.226Z,101440.34
2023-04-20T16:03:50.257Z,101427.47
2023-04-20T16:06:17.412Z,101431.56
2023-04-20T16:08:45.444Z,101437.31
2023-04-20T16:11:12.492Z,101427.00
2023-04-20T16:13:39.559Z,101432.97
2023-04-20T16:16:07.028Z,101422.94
2023-04-20T16:18:34.046Z,101433.47
2023-04-20T16:21:01.268Z,101426.13
2023-04-20T16:23:28.939Z,101420.41
2023-04-20T16:25:55.860Z,101431.75
2023-04-20T16:28:22.892Z,101432.56
2023-04-20T16:30:50.000Z,101431.19
2023-04-20T16:33:17.638Z,101440.44
2023-04-20T16:35:44.524Z,101439.56
2023-04-20T16:38:11.483Z,101438.25
2023-04-20T16:40:38.813Z,101435.00
2023-04-20T16:43:05.937Z,101438.28
2023-04-20T16:45:33.898Z,101439.44
2023-04-20T16:48:01.290Z,101433.53
2023-04-20T16:50:28.477Z,101437.94
2023-04-20T16:52:55.461Z,101433.13
2023-04-20T16:55:22.775Z,101445.72
2023-04-20T16:57:49.883Z,101434.13
2023-04-20T17:00:17.693Z,101439.13
2023-04-20T17:02:45.056Z,101444.69
2023-04-20T17:05:12.114Z,101440.97
2023-04-20T17:07:39.051Z,101452.75
2023-04-20T17:10:08.931Z,101441.41
2023-04-20T17:12:36.106Z,101444.75
2023-04-20T17:15:03.590Z,101446.72
2023-04-20T17:17:30.750Z,101456.22
2023-04-20T17:19:57.995Z,101449.22
2023-04-20T17:22:26.165Z,101457.38
2023-04-20T17:24:54.199Z,101444.09
2023-04-20T17:27:24.219Z,101462.00
2023-04-20T17:29:51.598Z,101457.41
2023-04-20T17:32:18.722Z,101469.91
2023-04-20T17:34:48.222Z,101458.47
2023-04-20T17:37:15.861Z,101460.09
2023-04-20T17:39:43.165Z,101458.47
2023-04-20T17:42:10.847Z,101461.72
2023-04-20T17:44:38.503Z,101471.16
2023-04-20T17:47:06.739Z,101468.13
2023-04-20T17:49:34.912Z,101467.56
2023-04-20T17:52:02.690Z,101470.44
2023-04-20T17:54:29.831Z,101462.00
2023-04-20T17:56:58.070Z,101469.53
2023-04-20T17:59:25.078Z,101476.53
2023-04-20T18:01:53.013Z,101472.09
2023-04-20T18:04:21.117Z,101486.09
2023-04-20T18:06:49.482Z,101484.97
2023-04-20T18:09:17.824Z,101486.53
2023-04-20T18:11:44.861Z,101488.06
2023-04-20T18:14:12.211Z,101493.94
2023-04-20T18:16:39.090Z,101493.84
2023-04-20T18:19:05.975Z,101493.25
2023-04-20T18:21:34.679Z,101490.47
2023-04-20T18:24:01.907Z,101496.31
2023-04-20T18:26:28.860Z,101493.00
2023-04-20T18:28:55.726Z,101491.28
2023-04-20T18:31:22.804Z,101497.97
2023-04-20T18:33:49.790Z,101498.41
2023-04-20T18:36:16.882Z,101508.09
2023-04-20T18:38:43.803Z,101510.66
2023-04-20T18:41:11.150Z,101512.97
2023-04-20T18:43:38.748Z,101506.41
2023-04-20T18:46:06.230Z,101516.00
2023-04-20T18:48:33.502Z,101513.22
2023-04-20T18:51:01.732Z,101506.88
2023-04-20T18:53:29.612Z,101509.25
2023-04-20T18:55:59.043Z,101508.56
2023-04-20T18:58:27.894Z,101499.84
2023-04-20T19:00:55.376Z,101503.03
2023-04-20T19:03:22.711Z,101508.84
2023-04-20T19:05:49.806Z,101499.31
2023-04-20T19:08:16.766Z,101513.84
2023-04-20T19:10:43.773Z,101512.16
2023-04-20T19:13:10.882Z,101509.63
2023-04-20T19:15:40.446Z,101512.78
2023-04-20T19:18:07.462Z,101510.50
2023-04-20T19:20:35.850Z,101515.31
2023-04-20T19:23:03.210Z,101513.38
2023-04-20T19:25:30.881Z,101513.25
2023-04-20T19:27:58.332Z,101519.38
2023-04-20T19:30:25.402Z,101509.00
2023-04-20T19:32:52.411Z,101520.84
2023-04-20T19:35:19.485Z,101508.84
2023-04-20T19:37:46.814Z,101518.81
2023-04-20T19:40:14.045Z,101514.16
2023-04-20T19:42:42.329Z,101523.78
2023-04-20T19:45:09.748Z,101515.59
2023-04-20T19:47:36.970Z,101514.47
2023-04-20T19:50:04.464Z,101518.94
2023-04-20T19:52:34.434Z,101512.66
2023-04-20T19:55:03.823Z,101516.06
2023-04-20T19:57:31.123Z,101521.13
2023-04-20T19:59:59.518Z,101516.69
2023-04-20T20:02:26.783Z,101516.38
2023-04-20T20:04:54.643Z,101518.97
2023-04-20T20:07:21.701Z,101520.25
2023-04-20T20:09:49.233Z,101523.88
2023-04-20T20:12:16.404Z,101526.19
2023-04-20T20:14:43.286Z,101525.88
2023-04-20T20:17:10.617Z,101527.41
2023-04-20T20:19:37.516Z,101520.63
2023-04-20T20:22:04.613Z,101527.19
2023-04-20T20:24:31.939Z,101522.28
2023-04-20T20:26:59.063Z,101530.03
2023-04-20T20:29:26.235Z,101529.09
2023-04-20T20:31:53.258Z,101534.72
2023-04-20T20:34:20.240Z,101537.31
2023-04-20T20:36:48.373Z,101545.63
2023-04-20T20:39:15.958Z,101540.72
2023-04-20T20:41:42.963Z,101539.53
2023-04-20T20:44:10.492Z,101546.22
2023-04-20T20:46:41.021Z,101536.16
2023-04-20T20:49:07.955Z,101533.94
2023-04-20T20:51:34.895Z,101530.34
2023-04-20T20:54:01.828Z,101514.34
2023-04-20T20:56:28.786Z,101527.53
2023-04-20T20:58:55.628Z,101532.09
2023-04-20T21:01:22.693Z,101529.31
2023-04-20T21:03:50.022Z,101536.06
2023-04-20T21:06:18.042Z,101531.41
2023-04-20T21:08:45.297Z,101532.94
2023-04-20T21:11:12.318Z,101534.78
2023-04-20T21:13:39.385Z,101532.34
2023-04-20T21:16:06.527Z,101527.88
2023-04-20T21:18:33.894Z,101536.75
2023-04-20T21:21:00.974Z,101535.34
2023-04-20T21:23:28.250Z,101537.22
2023-04-20T21:25:55.433Z,101529.63
2023-04-20T21:28:22.402Z,101528.81
2023-04-20T21:30:49.551Z,101529.50
2023-04-20T21:33:16.516Z,101529.28
2023-04-20T21:35:43.517Z,101530.34
2023-04-20T21:38:10.715Z,101535.13
2023-04-20T21:40:37.620Z,101537.34
2023-04-20T21:43:04.488Z,101523.56
2023-04-20T21:45:31.527Z,101528.69
2023-04-20T21:47:58.410Z,101530.56
2023-04-20T21:50:27.079Z,101526.72
2023-04-20T21:52:54.990Z,101531.84
2023-04-20T21:55:22.129Z,101529.88
2023-04-20T21:57:49.145Z,101535.81
2023-04-20T22:00:18.055Z,101544.69
2023-04-20T22:02:45.722Z,101534.41
2023-04-20T22:05:13.554Z,101537.56
2023-04-20T22:07:40.745Z,101535.69
2023-04-20T22:10:08.816Z,101537.34
2023-04-20T22:12:40.553Z,101533.25
2023-04-20T22:15:13.562Z,101542.72
2023-04-20T22:17:41.595Z,101536.53
2023-04-20T22:20:10.868Z,101543.75
2023-04-20T22:22:39.017Z,101534.28
2023-04-20T22:25:08.876Z,101546.44
2023-04-20T22:27:37.790Z,101538.03
2023-04-20T22:30:06.469Z,101544.22
2023-04-20T22:32:33.615Z,101550.41
2023-04-20T22:35:00.634Z,101543.63
2023-04-20T22:37:27.706Z,101536.63
2023-04-20T22:39:54.737Z,101534.97
2023-04-20T22:42:21.757Z,101547.38
2023-04-20T22:44:48.684Z,101540.56
2023-04-20T22:47:16.076Z,101544.06
2023-04-20T22:49:43.022Z,101554.81
2023-04-20T22:52:10.820Z,101546.88
2023-04-20T22:54:38.221Z,101547.91
2023-04-20T22:57:05.463Z,101549.56
2023-04-20T22:59:32.354Z,101550.59
2023-04-20T23:01:59.662Z,101547.34
2023-04-20T23:04:26.697Z,101552.34
2023-04-20T23:06:56.140Z,101555.25
2023-04-20T23:09:23.702Z,101541.47
2023-04-20T23:11:53.723Z,101555.97
2023-04-20T23:14:22.413Z,101554.78
2023-04-20T23:16:49.893Z,101556.41
2023-04-20T23:19:17.287Z,101556.88
2023-04-20T23:21:44.428Z,101550.56
2023-04-20T23:24:11.678Z,101553.84
2023-04-20T23:26:38.644Z,101559.22
2023-04-20T23:29:05.921Z,101542.97
2023-04-20T23:31:32.893Z,101559.06
2023-04-20T23:34:00.139Z,101547.16
2023-04-20T23:36:27.150Z,101553.72
2023-04-20T23:38:54.051Z,101542.84
2023-04-20T23:41:21.049Z,101543.88
2023-04-20T23:43:48.105Z,101547.16
2023-04-20T23:46:15.430Z,101543.88
2023-04-20T23:48:42.736Z,101549.13
2023-04-20T23:51:09.769Z,101550.53
2023-04-20T23:53:39.125Z,101558.81
2023-04-20T23:56:06.996Z,101554.38
2023-04-20T23:58:33.935Z,101555.78
